createdAt,value
2017-08-20T00:00:01.072Z,17.14
2017-08-20T00:01:02.896Z,17.18
2017-08-20T00:02:04.718Z,17.18
2017-08-20T00:03:06.606Z,17.07
2017-08-20T00:04:08.492Z,17.16
2017-08-20T00:05:10.375Z,17.06
2017-08-20T00:06:24.530Z,17.14
2017-08-20T00:07:26.424Z,17.19
2017-08-20T00:08:28.308Z,17.23
2017-08-20T00:09:30.198Z,17.16
2017-08-20T00:10:32.018Z,17.16
2017-08-20T00:11:33.843Z,17.03
2017-08-20T00:12:35.730Z,17.04
2017-08-20T00:13:37.616Z,16.98
2017-08-20T00:14:39.507Z,17.01
2017-08-20T00:15:53.673Z,16.96
2017-08-20T00:16:55.558Z,17.00
2017-08-20T00:17:57.447Z,17.01
2017-08-20T00:18:59.331Z,16.93
2017-08-20T00:20:01.155Z,17.01
2017-08-20T00:21:02.979Z,16.94
2017-08-20T00:22:04.863Z,16.94
2017-08-20T00:23:06.710Z,16.85
2017-08-20T00:24:08.530Z,16.75
2017-08-20T00:25:22.734Z,16.58
2017-08-20T00:26:24.616Z,16.49
2017-08-20T00:27:26.503Z,16.45
2017-08-20T00:28:28.390Z,16.48
2017-08-20T00:29:30.211Z,16.48
2017-08-20T00:30:32.036Z,16.52
2017-08-20T00:31:33.924Z,16.50
2017-08-20T00:32:35.806Z,16.53
2017-08-20T00:33:37.685Z,16.56
2017-08-20T00:34:51.852Z,16.56
2017-08-20T00:35:53.745Z,16.52
2017-08-20T00:36:55.632Z,16.58
2017-08-20T00:37:57.510Z,16.56
2017-08-20T00:38:59.334Z,16.60
2017-08-20T00:40:01.156Z,16.61
2017-08-20T00:41:03.038Z,16.53
2017-08-20T00:42:04.920Z,16.56
2017-08-20T00:43:06.804Z,16.53
2017-08-20T00:44:20.971Z,16.61
2017-08-20T00:45:22.852Z,16.64
2017-08-20T00:46:24.738Z,16.63
2017-08-20T00:47:26.621Z,16.64
2017-08-20T00:48:28.443Z,16.58
2017-08-20T00:49:30.264Z,16.60
2017-08-20T00:50:32.148Z,16.58
2017-08-20T00:51:34.031Z,16.66
2017-08-20T00:52:35.910Z,16.73
2017-08-20T00:53:50.077Z,16.85
2017-08-20T00:54:51.957Z,16.79
2017-08-20T00:55:53.845Z,16.88
2017-08-20T00:56:55.727Z,16.83
2017-08-20T00:57:57.559Z,16.86
2017-08-20T00:58:59.374Z,16.86
2017-08-20T01:00:01.258Z,16.86
2017-08-20T01:01:03.138Z,16.88
2017-08-20T01:02:05.021Z,16.76
2017-08-20T01:03:19.187Z,16.73
2017-08-20T01:04:21.079Z,16.70
2017-08-20T01:05:22.962Z,16.66
2017-08-20T01:06:24.844Z,16.53
2017-08-20T01:07:26.668Z,16.35
2017-08-20T01:08:28.507Z,16.21
2017-08-20T01:09:30.383Z,16.15
2017-08-20T01:10:32.263Z,15.96
2017-08-20T01:11:34.145Z,15.86
2017-08-20T01:12:48.299Z,15.75
2017-08-20T01:13:50.192Z,15.65
2017-08-20T01:14:52.074Z,15.67
2017-08-20T01:15:53.957Z,15.67
2017-08-20T01:16:55.778Z,15.62
2017-08-20T01:17:57.612Z,15.75
2017-08-20T01:18:59.493Z,15.72
2017-08-20T01:20:01.372Z,15.84
2017-08-20T01:21:03.215Z,15.89
2017-08-20T01:22:17.371Z,15.96
2017-08-20T01:23:19.254Z,15.96
2017-08-20T01:24:21.139Z,15.94
2017-08-20T01:25:23.023Z,16.08
2017-08-20T01:26:24.858Z,16.08
2017-08-20T01:27:26.680Z,16.05
2017-08-20T01:28:28.560Z,16.04
2017-08-20T01:29:30.442Z,16.05
2017-08-20T01:30:32.324Z,16.14
2017-08-20T01:31:46.488Z,16.09
2017-08-20T01:32:48.378Z,16.02
2017-08-20T01:33:50.269Z,16.04
2017-08-20T01:34:52.147Z,16.04
2017-08-20T01:35:53.969Z,16.15
2017-08-20T01:36:56.768Z,16.02
2017-08-20T01:37:58.648Z,16.04
2017-08-20T01:39:00.539Z,16.07
2017-08-20T01:40:02.418Z,16.04
2017-08-20T01:41:16.584Z,16.05
2017-08-20T01:42:18.460Z,16.00
2017-08-20T01:43:20.338Z,15.96
2017-08-20T01:44:22.216Z,16.02
2017-08-20T01:45:24.037Z,16.00
2017-08-20T01:46:25.867Z,16.00
2017-08-20T01:47:27.746Z,16.07
2017-08-20T01:48:29.636Z,16.07
2017-08-20T01:49:31.527Z,16.09
2017-08-20T01:50:45.680Z,16.23
2017-08-20T01:51:47.569Z,16.09
2017-08-20T01:52:49.445Z,16.09
2017-08-20T01:53:51.341Z,15.94
2017-08-20T01:54:53.155Z,15.78
2017-08-20T01:55:54.991Z,15.69
2017-08-20T01:56:56.869Z,15.67
2017-08-20T01:57:58.747Z,15.62
2017-08-20T01:59:00.632Z,15.60
2017-08-20T02:00:14.795Z,15.59
2017-08-20T02:01:16.684Z,15.62
2017-08-20T02:02:18.563Z,15.68
2017-08-20T02:03:20.453Z,15.67
2017-08-20T02:04:22.274Z,15.74
2017-08-20T02:05:24.106Z,15.62
2017-08-20T02:06:25.987Z,15.65
2017-08-20T02:07:27.864Z,15.54
2017-08-20T02:08:29.752Z,15.60
2017-08-20T02:09:43.952Z,15.64
2017-08-20T02:10:45.842Z,15.62
2017-08-20T02:11:47.720Z,15.60
2017-08-20T02:12:49.596Z,15.69
2017-08-20T02:13:51.425Z,15.64
2017-08-20T02:14:53.246Z,15.72
2017-08-20T02:15:55.136Z,15.72
2017-08-20T02:16:57.015Z,15.75
2017-08-20T02:17:58.896Z,15.75
2017-08-20T02:19:13.062Z,15.78
2017-08-20T02:20:14.939Z,15.84
2017-08-20T02:21:16.829Z,15.76
2017-08-20T02:22:18.716Z,15.84
2017-08-20T02:23:20.539Z,15.74
2017-08-20T02:24:22.372Z,15.78
2017-08-20T02:25:24.248Z,15.84
2017-08-20T02:26:26.137Z,15.82
2017-08-20T02:27:28.026Z,15.93
2017-08-20T02:28:42.178Z,16.02
2017-08-20T02:29:44.058Z,16.05
2017-08-20T02:30:45.935Z,16.14
2017-08-20T02:31:47.824Z,16.14
2017-08-20T02:32:49.643Z,16.07
2017-08-20T02:33:51.473Z,16.02
2017-08-20T02:34:53.318Z,15.94
2017-08-20T02:35:55.148Z,15.93
2017-08-20T02:36:56.987Z,15.94
2017-08-20T02:38:11.138Z,15.93
2017-08-20T02:39:13.026Z,15.86
2017-08-20T02:40:14.904Z,15.82
2017-08-20T02:41:16.793Z,15.72
2017-08-20T02:42:18.614Z,15.76
2017-08-20T02:43:20.435Z,15.68
2017-08-20T02:44:22.327Z,15.62
2017-08-20T02:45:24.206Z,15.62
2017-08-20T02:46:26.095Z,15.68
2017-08-20T02:47:40.248Z,15.71
2017-08-20T02:48:42.126Z,15.69
2017-08-20T02:49:44.004Z,15.74
2017-08-20T02:50:45.895Z,15.72
2017-08-20T02:51:47.714Z,15.68
2017-08-20T02:52:49.534Z,15.68
2017-08-20T02:53:51.417Z,15.68
2017-08-20T02:54:53.306Z,15.54
2017-08-20T02:55:55.196Z,15.54
2017-08-20T02:57:09.362Z,15.60
2017-08-20T02:58:11.241Z,15.54
2017-08-20T02:59:13.121Z,15.51
2017-08-20T03:00:15.004Z,15.57
2017-08-20T03:01:16.820Z,15.56
2017-08-20T03:02:18.639Z,15.57
2017-08-20T03:03:20.531Z,15.50
2017-08-20T03:04:22.409Z,15.46
2017-08-20T03:05:24.286Z,15.35
2017-08-20T03:06:38.466Z,15.39
2017-08-20T03:07:40.364Z,15.38
2017-08-20T03:08:42.240Z,15.31
2017-08-20T03:09:44.119Z,15.29
2017-08-20T03:10:45.939Z,15.36
2017-08-20T03:11:47.757Z,15.27
2017-08-20T03:12:49.638Z,15.31
2017-08-20T03:13:51.514Z,15.21
2017-08-20T03:14:53.391Z,15.21
2017-08-20T03:16:07.544Z,15.23
2017-08-20T03:17:09.432Z,15.25
2017-08-20T03:18:11.312Z,15.21
2017-08-20T03:19:13.201Z,15.27
2017-08-20T03:20:15.033Z,15.25
2017-08-20T03:21:16.856Z,15.23
2017-08-20T03:22:18.735Z,15.23
2017-08-20T03:23:20.613Z,15.25
2017-08-20T03:24:22.492Z,15.32
2017-08-20T03:25:36.655Z,15.31
2017-08-20T03:26:38.544Z,15.27
2017-08-20T03:27:40.428Z,15.34
2017-08-20T03:28:42.299Z,15.35
2017-08-20T03:29:44.118Z,15.34
2017-08-20T03:30:45.940Z,15.23
2017-08-20T03:31:47.818Z,15.21
2017-08-20T03:32:49.708Z,15.28
2017-08-20T03:33:51.584Z,15.09
2017-08-20T03:35:05.748Z,15.07
2017-08-20T03:36:07.629Z,15.02
2017-08-20T03:37:09.520Z,15.09
2017-08-20T03:38:11.400Z,15.07
2017-08-20T03:39:13.220Z,15.09
2017-08-20T03:40:15.051Z,15.09
2017-08-20T03:41:16.931Z,15.07
2017-08-20T03:42:18.811Z,15.19
2017-08-20T03:43:20.690Z,15.19
2017-08-20T03:44:34.858Z,15.25
2017-08-20T03:45:36.735Z,15.23
2017-08-20T03:46:38.625Z,15.21
2017-08-20T03:47:40.513Z,15.28
2017-08-20T03:48:42.344Z,15.27
2017-08-20T03:49:44.175Z,15.39
2017-08-20T03:50:46.058Z,15.29
2017-08-20T03:51:47.949Z,15.27
2017-08-20T03:52:49.826Z,15.34
2017-08-20T03:54:04.012Z,15.27
2017-08-20T03:55:05.873Z,15.32
2017-08-20T03:56:07.752Z,15.27
2017-08-20T03:57:09.644Z,15.36
2017-08-20T03:58:11.464Z,15.32
2017-08-20T03:59:13.287Z,15.16
2017-08-20T04:00:15.170Z,15.32
2017-08-20T04:01:17.061Z,15.32
2017-08-20T04:02:18.950Z,15.35
2017-08-20T04:03:33.104Z,15.32
2017-08-20T04:04:34.986Z,15.32
2017-08-20T04:05:36.868Z,15.36
2017-08-20T04:06:38.771Z,15.39
2017-08-20T04:07:40.583Z,15.38
2017-08-20T04:08:42.418Z,15.38
2017-08-20T04:09:44.311Z,15.38
2017-08-20T04:10:46.194Z,15.39
2017-08-20T04:11:48.073Z,15.39
2017-08-20T04:13:02.241Z,15.39
2017-08-20T04:14:04.120Z,15.39
2017-08-20T04:15:06.011Z,15.43
2017-08-20T04:16:07.894Z,15.47
2017-08-20T04:17:09.720Z,15.49
2017-08-20T04:18:11.544Z,15.49
2017-08-20T04:19:13.439Z,15.51
2017-08-20T04:20:15.331Z,15.49
2017-08-20T04:21:17.212Z,15.57
2017-08-20T04:22:31.372Z,15.54
2017-08-20T04:23:33.253Z,15.56
2017-08-20T04:24:35.138Z,15.65
2017-08-20T04:25:37.017Z,15.56
2017-08-20T04:26:38.843Z,15.56
2017-08-20T04:27:40.667Z,15.57
2017-08-20T04:28:42.562Z,15.64
2017-08-20T04:29:44.459Z,15.60
2017-08-20T04:30:46.339Z,15.60
2017-08-20T04:32:00.506Z,15.54
2017-08-20T04:33:02.402Z,15.60
2017-08-20T04:34:04.295Z,15.71
2017-08-20T04:35:06.178Z,15.75
2017-08-20T04:36:08.012Z,15.71
2017-08-20T04:37:09.835Z,15.72
2017-08-20T04:38:11.721Z,15.86
2017-08-20T04:39:13.614Z,15.84
2017-08-20T04:40:15.498Z,16.01
2017-08-20T04:41:29.655Z,16.02
2017-08-20T04:42:31.544Z,16.09
2017-08-20T04:43:33.421Z,16.14
2017-08-20T04:44:35.303Z,16.12
2017-08-20T04:45:37.129Z,16.20
2017-08-20T04:46:38.964Z,16.08
2017-08-20T04:47:40.847Z,16.02
2017-08-20T04:48:42.730Z,16.05
2017-08-20T04:49:44.621Z,16.01
2017-08-20T04:50:58.787Z,16.07
2017-08-20T04:52:00.682Z,16.23
2017-08-20T04:53:02.559Z,16.31
2017-08-20T04:54:04.456Z,16.28
2017-08-20T04:55:06.282Z,16.34
2017-08-20T04:56:08.116Z,16.35
2017-08-20T04:57:10.002Z,16.33
2017-08-20T04:58:11.883Z,16.42
2017-08-20T04:59:13.773Z,16.48
2017-08-20T05:00:27.941Z,16.57
2017-08-20T05:01:29.836Z,16.61
2017-08-20T05:02:31.732Z,16.60
2017-08-20T05:03:33.612Z,16.66
2017-08-20T05:04:35.441Z,16.67
2017-08-20T05:05:37.260Z,16.64
2017-08-20T05:06:39.146Z,16.70
2017-08-20T05:07:41.039Z,16.76
2017-08-20T05:08:42.921Z,16.88
2017-08-20T05:09:57.089Z,16.79
2017-08-20T05:10:58.984Z,16.82
2017-08-20T05:12:00.877Z,16.86
2017-08-20T05:13:02.761Z,16.88
2017-08-20T05:14:04.597Z,16.83
2017-08-20T05:15:06.421Z,16.81
2017-08-20T05:16:08.304Z,16.86
2017-08-20T05:17:10.198Z,16.81
2017-08-20T05:18:12.082Z,16.82
2017-08-20T05:19:26.252Z,16.96
2017-08-20T05:20:28.137Z,16.86
2017-08-20T05:21:30.029Z,16.97
2017-08-20T05:22:31.928Z,17.00
2017-08-20T05:23:33.752Z,17.01
2017-08-20T05:24:35.587Z,17.03
2017-08-20T05:25:37.483Z,17.06
2017-08-20T05:26:39.368Z,17.12
2017-08-20T05:27:41.261Z,17.04
2017-08-20T05:28:55.429Z,17.01
2017-08-20T05:29:57.313Z,17.04
2017-08-20T05:30:59.206Z,17.01
2017-08-20T05:32:01.091Z,16.91
2017-08-20T05:33:02.916Z,16.94
2017-08-20T05:34:04.753Z,16.98
2017-08-20T05:35:06.650Z,17.00
2017-08-20T05:36:08.535Z,17.00
2017-08-20T05:37:10.431Z,17.04
2017-08-20T05:38:24.588Z,17.12
2017-08-20T05:39:26.483Z,17.08
2017-08-20T05:40:28.377Z,17.16
2017-08-20T05:41:30.265Z,17.01
2017-08-20T05:42:32.090Z,16.83
2017-08-20T05:43:33.915Z,16.76
2017-08-20T05:44:35.798Z,16.71
2017-08-20T05:45:37.683Z,16.75
2017-08-20T05:46:39.563Z,16.78
2017-08-20T05:47:53.723Z,16.75
2017-08-20T05:48:55.606Z,16.71
2017-08-20T05:49:57.494Z,16.83
2017-08-20T05:50:59.374Z,16.85
2017-08-20T05:52:01.200Z,16.97
2017-08-20T05:53:03.027Z,16.94
2017-08-20T05:54:04.914Z,17.07
2017-08-20T05:55:06.797Z,17.06
2017-08-20T05:56:08.695Z,17.14
2017-08-20T05:57:22.903Z,17.28
2017-08-20T05:58:24.788Z,17.33
2017-08-20T05:59:26.673Z,17.46
2017-08-20T06:00:28.555Z,17.41
2017-08-20T06:01:30.398Z,17.52
2017-08-20T06:02:32.226Z,17.52
2017-08-20T06:03:34.109Z,17.64
2017-08-20T06:04:35.994Z,17.62
2017-08-20T06:05:37.879Z,17.52
2017-08-20T06:06:52.037Z,17.55
2017-08-20T06:07:53.923Z,17.51
2017-08-20T06:08:55.809Z,17.58
2017-08-20T06:09:57.693Z,17.56
2017-08-20T06:10:59.521Z,17.51
2017-08-20T06:12:01.348Z,17.63
2017-08-20T06:13:03.239Z,17.63
2017-08-20T06:14:05.123Z,17.64
2017-08-20T06:15:07.008Z,17.72
2017-08-20T06:16:21.169Z,17.75
2017-08-20T06:17:23.057Z,17.74
2017-08-20T06:18:24.944Z,17.66
2017-08-20T06:19:26.825Z,17.82
2017-08-20T06:20:28.654Z,17.81
2017-08-20T06:21:30.482Z,17.77
2017-08-20T06:22:32.364Z,17.84
2017-08-20T06:23:34.259Z,17.93
2017-08-20T06:24:36.156Z,17.90
2017-08-20T06:25:50.331Z,18.02
2017-08-20T06:26:52.219Z,17.99
2017-08-20T06:27:54.104Z,17.97
2017-08-20T06:28:55.989Z,17.82
2017-08-20T06:29:57.818Z,17.70
2017-08-20T06:30:59.650Z,17.59
2017-08-20T06:32:01.537Z,17.68
2017-08-20T06:33:03.424Z,17.68
2017-08-20T06:34:05.307Z,17.64
2017-08-20T06:35:19.469Z,17.77
2017-08-20T06:36:21.355Z,17.63
2017-08-20T06:37:23.242Z,17.81
2017-08-20T06:38:25.123Z,17.99
2017-08-20T06:39:26.952Z,17.97
2017-08-20T06:40:28.777Z,18.14
2017-08-20T06:41:30.698Z,18.32
2017-08-20T06:42:32.595Z,18.42
2017-08-20T06:43:34.488Z,18.54
2017-08-20T06:44:48.653Z,18.54
2017-08-20T06:45:50.539Z,18.45
2017-08-20T06:46:52.425Z,18.36
2017-08-20T06:47:54.308Z,18.14
2017-08-20T06:48:56.148Z,18.11
2017-08-20T06:49:57.980Z,17.99
2017-08-20T06:50:59.863Z,17.78
2017-08-20T06:52:01.759Z,17.64
2017-08-20T06:53:03.654Z,17.62
2017-08-20T06:54:17.826Z,17.62
2017-08-20T06:55:19.711Z,17.62
2017-08-20T06:56:21.597Z,17.59
2017-08-20T06:57:23.481Z,17.64
2017-08-20T06:58:25.333Z,17.82
2017-08-20T06:59:27.159Z,17.77
2017-08-20T07:00:29.043Z,17.93
2017-08-20T07:01:30.940Z,18.03
2017-08-20T07:02:32.825Z,18.10
2017-08-20T07:03:46.996Z,18.07
2017-08-20T07:04:48.883Z,18.18
2017-08-20T07:05:50.770Z,18.08
2017-08-20T07:06:52.653Z,17.99
2017-08-20T07:07:54.491Z,18.08
2017-08-20T07:08:56.317Z,18.02
2017-08-20T07:09:58.204Z,17.89
2017-08-20T07:11:00.093Z,17.95
2017-08-20T07:12:01.976Z,17.78
2017-08-20T07:13:16.151Z,17.79
2017-08-20T07:14:18.036Z,17.84
2017-08-20T07:15:19.930Z,17.84
2017-08-20T07:16:21.814Z,17.79
2017-08-20T07:17:23.652Z,17.95
2017-08-20T07:18:25.480Z,17.95
2017-08-20T07:19:27.365Z,17.89
2017-08-20T07:20:29.259Z,17.71
2017-08-20T07:21:31.155Z,17.68
2017-08-20T07:22:45.315Z,17.66
2017-08-20T07:23:47.200Z,17.63
2017-08-20T07:24:49.095Z,17.71
2017-08-20T07:25:50.978Z,17.71
2017-08-20T07:26:52.815Z,17.71
2017-08-20T07:27:54.654Z,17.78
2017-08-20T07:28:56.544Z,17.86
2017-08-20T07:29:58.496Z,17.95
2017-08-20T07:31:00.355Z,18.00
2017-08-20T07:32:14.530Z,18.08
2017-08-20T07:33:16.417Z,18.12
2017-08-20T07:34:18.306Z,18.21
2017-08-20T07:35:20.190Z,18.18
2017-08-20T07:36:22.352Z,18.23
2017-08-20T07:37:24.173Z,18.14
2017-08-20T07:38:26.061Z,18.12
2017-08-20T07:39:27.943Z,18.12
2017-08-20T07:40:29.830Z,18.12
2017-08-20T07:41:43.991Z,18.21
2017-08-20T07:42:45.878Z,18.35
2017-08-20T07:43:47.761Z,18.45
2017-08-20T07:44:49.658Z,18.39
2017-08-20T07:45:51.488Z,18.47
2017-08-20T07:46:53.316Z,18.41
2017-08-20T07:47:55.204Z,18.44
2017-08-20T07:48:57.098Z,18.41
2017-08-20T07:49:58.981Z,18.26
2017-08-20T07:51:13.147Z,18.11
2017-08-20T07:52:15.033Z,18.07
2017-08-20T07:53:16.914Z,18.05
2017-08-20T07:54:18.822Z,18.03
2017-08-20T07:55:20.652Z,18.05
2017-08-20T07:56:22.479Z,18.14
2017-08-20T07:57:24.381Z,18.35
2017-08-20T07:58:26.267Z,18.36
2017-08-20T07:59:28.151Z,18.50
2017-08-20T08:00:42.310Z,18.52
2017-08-20T08:01:44.197Z,18.57
2017-08-20T08:02:46.087Z,18.69
2017-08-20T08:03:47.970Z,18.50
2017-08-20T08:04:49.809Z,18.47
2017-08-20T08:05:51.959Z,18.52
2017-08-20T08:06:53.784Z,18.57
2017-08-20T08:07:55.609Z,18.70
2017-08-20T08:08:57.532Z,18.69
2017-08-20T08:10:11.674Z,18.60
2017-08-20T08:11:13.563Z,18.66
2017-08-20T08:12:15.452Z,18.69
2017-08-20T08:13:17.342Z,18.67
2017-08-20T08:14:19.182Z,18.76
2017-08-20T08:15:21.017Z,18.88
2017-08-20T08:16:22.906Z,18.82
2017-08-20T08:17:24.831Z,18.92
2017-08-20T08:18:26.708Z,19.08
2017-08-20T08:19:40.918Z,19.19
2017-08-20T08:20:42.808Z,19.21
2017-08-20T08:21:44.701Z,19.16
2017-08-20T08:22:46.602Z,19.25
2017-08-20T08:23:48.425Z,19.25
2017-08-20T08:24:50.259Z,19.18
2017-08-20T08:25:52.146Z,19.41
2017-08-20T08:26:54.060Z,19.61
2017-08-20T08:27:55.942Z,19.87
2017-08-20T08:29:10.112Z,20.01
2017-08-20T08:30:12.018Z,20.23
2017-08-20T08:31:13.909Z,20.29
2017-08-20T08:32:15.802Z,20.29
2017-08-20T08:33:17.642Z,20.31
2017-08-20T08:34:19.479Z,20.59
2017-08-20T08:35:21.372Z,20.67
2017-08-20T08:36:23.264Z,20.89
2017-08-20T08:37:25.164Z,21.01
2017-08-20T08:38:39.319Z,21.28
2017-08-20T08:39:41.212Z,21.22
2017-08-20T08:40:43.102Z,21.17
2017-08-20T08:41:44.989Z,21.12
2017-08-20T08:42:46.826Z,21.03
2017-08-20T08:43:48.654Z,20.99
2017-08-20T08:44:50.549Z,20.92
2017-08-20T08:45:52.451Z,20.99
2017-08-20T08:46:54.345Z,20.99
2017-08-20T08:48:08.508Z,21.24
2017-08-20T08:49:10.410Z,21.35
2017-08-20T08:50:12.307Z,21.38
2017-08-20T08:51:14.208Z,21.29
2017-08-20T08:52:16.046Z,21.19
2017-08-20T08:53:17.868Z,21.04
2017-08-20T08:54:19.767Z,20.99
2017-08-20T08:55:21.667Z,20.97
2017-08-20T08:56:23.549Z,20.85
2017-08-20T08:57:37.725Z,20.57
2017-08-20T08:58:39.610Z,20.57
2017-08-20T08:59:41.505Z,20.55
2017-08-20T09:00:43.389Z,20.55
2017-08-20T09:01:45.228Z,20.62
2017-08-20T09:02:47.066Z,20.38
2017-08-20T09:03:48.951Z,20.20
2017-08-20T09:04:50.849Z,19.91
2017-08-20T09:05:52.744Z,19.78
2017-08-20T09:07:06.901Z,19.76
2017-08-20T09:08:08.799Z,19.91
2017-08-20T09:09:10.679Z,20.08
2017-08-20T09:10:12.576Z,20.21
2017-08-20T09:11:14.406Z,20.32
2017-08-20T09:12:16.232Z,20.32
2017-08-20T09:13:18.119Z,20.52
2017-08-20T09:14:20.024Z,20.55
2017-08-20T09:15:21.907Z,20.61
2017-08-20T09:16:36.102Z,20.82
2017-08-20T09:17:37.983Z,20.98
2017-08-20T09:18:39.875Z,21.12
2017-08-20T09:19:41.767Z,21.27
2017-08-20T09:20:43.597Z,21.38
2017-08-20T09:21:45.427Z,21.44
2017-08-20T09:22:47.326Z,21.54
2017-08-20T09:23:49.216Z,21.53
2017-08-20T09:24:51.096Z,21.49
2017-08-20T09:26:05.276Z,21.43
2017-08-20T09:27:07.162Z,21.25
2017-08-20T09:28:09.050Z,21.10
2017-08-20T09:29:10.943Z,20.85
2017-08-20T09:30:12.775Z,20.82
2017-08-20T09:31:14.614Z,20.72
2017-08-20T09:32:16.499Z,20.79
2017-08-20T09:33:18.396Z,20.87
2017-08-20T09:34:20.284Z,20.89
2017-08-20T09:35:34.458Z,20.92
2017-08-20T09:36:36.351Z,20.95
2017-08-20T09:37:38.241Z,21.03
2017-08-20T09:38:40.143Z,21.19
2017-08-20T09:39:41.971Z,21.12
2017-08-20T09:40:43.814Z,20.88
2017-08-20T09:41:45.704Z,20.72
2017-08-20T09:42:47.599Z,20.58
2017-08-20T09:43:49.499Z,20.70
2017-08-20T09:45:03.667Z,20.79
2017-08-20T09:46:05.560Z,20.88
2017-08-20T09:47:07.450Z,20.82
2017-08-20T09:48:09.333Z,20.84
2017-08-20T09:49:11.174Z,20.89
2017-08-20T09:50:13.017Z,21.07
2017-08-20T09:51:14.904Z,21.28
2017-08-20T09:52:16.799Z,21.43
2017-08-20T09:53:18.689Z,21.49
2017-08-20T09:54:32.905Z,21.49
2017-08-20T09:55:34.794Z,21.32
2017-08-20T09:56:36.688Z,21.14
2017-08-20T09:57:38.583Z,20.99
2017-08-20T09:58:40.414Z,20.85
2017-08-20T09:59:42.244Z,20.70
2017-08-20T10:00:44.139Z,20.70
2017-08-20T10:01:46.039Z,20.57
2017-08-20T10:02:47.925Z,20.50
2017-08-20T10:04:02.090Z,20.55
2017-08-20T10:05:03.987Z,20.59
2017-08-20T10:06:05.874Z,20.61
2017-08-20T10:07:07.765Z,20.52
2017-08-20T10:08:09.598Z,20.55
2017-08-20T10:09:11.428Z,20.62
2017-08-20T10:10:13.337Z,20.57
2017-08-20T10:11:15.221Z,20.57
2017-08-20T10:12:17.116Z,20.77
2017-08-20T10:13:31.280Z,20.91
2017-08-20T10:14:33.165Z,21.03
2017-08-20T10:15:35.052Z,21.22
2017-08-20T10:16:36.957Z,21.22
2017-08-20T10:17:38.777Z,21.19
2017-08-20T10:18:40.610Z,21.13
2017-08-20T10:19:42.495Z,20.98
2017-08-20T10:20:44.391Z,20.89
2017-08-20T10:21:46.277Z,20.70
2017-08-20T10:23:00.440Z,20.66
2017-08-20T10:24:02.327Z,20.67
2017-08-20T10:25:04.223Z,20.69
2017-08-20T10:26:06.122Z,20.54
2017-08-20T10:27:07.951Z,20.59
2017-08-20T10:28:09.779Z,20.62
2017-08-20T10:29:11.667Z,20.55
2017-08-20T10:30:13.561Z,20.67
2017-08-20T10:31:15.459Z,20.64
2017-08-20T10:32:29.640Z,20.74
2017-08-20T10:33:31.529Z,20.62
2017-08-20T10:34:33.428Z,20.66
2017-08-20T10:35:35.313Z,20.64
2017-08-20T10:36:37.148Z,20.58
2017-08-20T10:37:38.984Z,20.66
2017-08-20T10:38:40.878Z,20.77
2017-08-20T10:39:42.769Z,20.95
2017-08-20T10:40:44.653Z,21.13
2017-08-20T10:41:58.816Z,21.34
2017-08-20T10:43:00.701Z,21.49
2017-08-20T10:44:02.601Z,21.62
2017-08-20T10:45:04.482Z,21.72
2017-08-20T10:46:06.317Z,21.69
2017-08-20T10:47:08.158Z,21.75
2017-08-20T10:48:10.045Z,21.50
2017-08-20T10:49:11.938Z,21.38
2017-08-20T10:50:13.832Z,21.43
2017-08-20T10:51:27.994Z,21.54
2017-08-20T10:52:29.893Z,21.52
2017-08-20T10:53:31.775Z,21.64
2017-08-20T10:54:33.663Z,21.59
2017-08-20T10:55:35.502Z,21.72
2017-08-20T10:56:37.334Z,21.87
2017-08-20T10:57:39.220Z,22.02
2017-08-20T10:58:41.122Z,22.15
2017-08-20T10:59:43.010Z,22.36
2017-08-20T11:00:57.180Z,22.58
2017-08-20T11:01:59.069Z,22.86
2017-08-20T11:03:00.971Z,23.04
2017-08-20T11:04:02.869Z,23.32
2017-08-20T11:05:04.702Z,23.53
2017-08-20T11:06:06.536Z,23.60
2017-08-20T11:07:08.434Z,23.76
2017-08-20T11:08:10.324Z,23.69
2017-08-20T11:09:12.218Z,23.54
2017-08-20T11:10:26.386Z,23.38
2017-08-20T11:11:28.279Z,23.19
2017-08-20T11:12:30.157Z,23.01
2017-08-20T11:13:32.047Z,22.79
2017-08-20T11:14:33.922Z,22.60
2017-08-20T11:15:35.793Z,22.46
2017-08-20T11:16:37.689Z,22.35
2017-08-20T11:17:39.590Z,22.17
2017-08-20T11:18:41.482Z,22.07
2017-08-20T11:19:55.651Z,22.09
2017-08-20T11:20:57.537Z,22.22
2017-08-20T11:21:59.429Z,22.37
2017-08-20T11:23:01.330Z,22.31
2017-08-20T11:24:03.162Z,22.22
2017-08-20T11:25:04.993Z,22.15
2017-08-20T11:26:06.875Z,22.15
2017-08-20T11:27:08.772Z,22.07
2017-08-20T11:28:10.676Z,21.84
2017-08-20T11:29:24.868Z,21.74
2017-08-20T11:30:26.750Z,21.54
2017-08-20T11:31:28.643Z,21.46
2017-08-20T11:32:30.535Z,21.40
2017-08-20T11:33:32.372Z,21.10
2017-08-20T11:34:34.211Z,20.89
2017-08-20T11:35:36.104Z,20.80
2017-08-20T11:36:37.991Z,20.70
2017-08-20T11:37:39.882Z,20.57
2017-08-20T11:38:54.057Z,20.64
2017-08-20T11:39:55.943Z,20.66
2017-08-20T11:40:57.835Z,20.69
2017-08-20T11:41:59.720Z,20.72
2017-08-20T11:43:01.544Z,20.70
2017-08-20T11:44:03.381Z,20.92
2017-08-20T11:45:05.268Z,21.07
2017-08-20T11:46:07.164Z,21.17
2017-08-20T11:47:09.055Z,21.17
2017-08-20T11:48:23.223Z,21.44
2017-08-20T11:49:25.107Z,21.54
2017-08-20T11:50:27.003Z,21.54
2017-08-20T11:51:28.889Z,21.50
2017-08-20T11:52:30.719Z,21.52
2017-08-20T11:53:32.558Z,21.56
2017-08-20T11:54:34.449Z,21.69
2017-08-20T11:55:36.343Z,21.82
2017-08-20T11:56:38.293Z,21.80
2017-08-20T11:57:52.449Z,21.71
2017-08-20T11:58:54.342Z,21.53
2017-08-20T11:59:56.234Z,21.34
2017-08-20T12:00:58.128Z,21.22
2017-08-20T12:01:59.966Z,21.13
2017-08-20T12:03:01.799Z,21.21
2017-08-20T12:04:03.707Z,21.28
2017-08-20T12:05:05.595Z,21.37
2017-08-20T12:06:07.488Z,21.34
2017-08-20T12:07:21.655Z,21.40
2017-08-20T12:08:23.547Z,21.47
2017-08-20T12:09:25.443Z,21.56
2017-08-20T12:10:27.341Z,21.77
2017-08-20T12:11:29.180Z,22.05
2017-08-20T12:12:31.016Z,22.12
2017-08-20T12:13:32.912Z,22.39
2017-08-20T12:14:34.808Z,22.64
2017-08-20T12:15:36.694Z,22.76
2017-08-20T12:16:50.862Z,22.88
2017-08-20T12:17:52.757Z,22.91
2017-08-20T12:18:54.634Z,23.00
2017-08-20T12:19:56.529Z,22.77
2017-08-20T12:20:58.360Z,22.65
2017-08-20T12:22:00.189Z,22.52
2017-08-20T12:23:02.081Z,22.28
2017-08-20T12:24:03.968Z,22.12
2017-08-20T12:25:05.855Z,21.83
2017-08-20T12:26:20.032Z,21.71
2017-08-20T12:27:21.930Z,21.92
2017-08-20T12:28:23.829Z,21.96
2017-08-20T12:29:25.715Z,22.05
2017-08-20T12:30:27.541Z,22.06
2017-08-20T12:31:29.371Z,21.96
2017-08-20T12:32:31.284Z,21.94
2017-08-20T12:33:33.174Z,22.12
2017-08-20T12:34:35.074Z,22.27
2017-08-20T12:35:49.235Z,22.43
2017-08-20T12:36:51.135Z,22.67
2017-08-20T12:37:53.017Z,22.79
2017-08-20T12:38:54.908Z,22.76
2017-08-20T12:39:56.748Z,22.90
2017-08-20T12:40:58.585Z,23.07
2017-08-20T12:42:00.475Z,22.97
2017-08-20T12:43:02.360Z,22.79
2017-08-20T12:44:04.264Z,22.64
2017-08-20T12:45:18.430Z,22.54
2017-08-20T12:46:20.330Z,22.27
2017-08-20T12:47:22.220Z,22.17
2017-08-20T12:48:24.108Z,22.02
2017-08-20T12:49:25.951Z,21.98
2017-08-20T12:50:27.778Z,21.87
2017-08-20T12:51:29.672Z,21.83
2017-08-20T12:52:31.562Z,21.75
2017-08-20T12:53:33.457Z,21.62
2017-08-20T12:54:47.627Z,21.54
2017-08-20T12:55:49.515Z,21.62
2017-08-20T12:56:51.407Z,21.65
2017-08-20T12:57:53.293Z,21.72
2017-08-20T12:58:55.137Z,21.72
2017-08-20T12:59:56.966Z,21.87
2017-08-20T13:00:58.864Z,21.80
2017-08-20T13:02:00.752Z,21.80
2017-08-20T13:03:02.644Z,21.82
2017-08-20T13:04:16.806Z,21.75
2017-08-20T13:05:18.699Z,21.74
2017-08-20T13:06:20.597Z,21.72
2017-08-20T13:07:22.493Z,21.62
2017-08-20T13:08:24.322Z,21.86
2017-08-20T13:09:26.158Z,22.03
2017-08-20T13:10:28.051Z,22.17
2017-08-20T13:11:29.932Z,22.18
2017-08-20T13:12:31.826Z,22.15
2017-08-20T13:13:46.045Z,22.17
2017-08-20T13:14:47.939Z,22.22
2017-08-20T13:15:49.824Z,22.33
2017-08-20T13:16:51.714Z,22.33
2017-08-20T13:17:53.547Z,22.49
2017-08-20T13:18:55.378Z,22.58
2017-08-20T13:19:57.274Z,22.67
2017-08-20T13:20:59.158Z,22.76
2017-08-20T13:22:01.073Z,22.73
2017-08-20T13:23:15.213Z,22.80
2017-08-20T13:24:17.109Z,22.75
2017-08-20T13:25:19.010Z,22.33
2017-08-20T13:26:20.896Z,22.14
2017-08-20T13:27:22.719Z,21.99
2017-08-20T13:28:24.544Z,21.99
2017-08-20T13:29:26.438Z,21.98
2017-08-20T13:30:28.329Z,21.80
2017-08-20T13:31:30.221Z,21.72
2017-08-20T13:32:44.387Z,21.61
2017-08-20T13:33:46.277Z,21.61